sensor_id;sensor_type;location;lat;lon;timestamp;P1;durP1;ratioP1;P2;durP2;ratioP2
14665;SDS011;7420;53.574;10.040;2023-04-01T00:00:27;12.38;;;6.78;;
14665;SDS011;7420;53.574;10.040;2023-04-01T00:02:53;13.48;;;6.70;;
14665;SDS011;7420;53.574;10.040;2023-04-01T00:05:18;12.48;;;8.05;;
14665;SDS011;7420;53.574;10.040;2023-04-01T00:07:44;10.13;;;6.18;;
14665;SDS011;7420;53.574;10.040;2023-04-01T00:10:10;14.38;;;6.28;;
14665;SDS011;7420;53.574;10.040;2023-04-01T00:12:37;17.58;;;9.32;;
14665;SDS011;7420;53.574;10.040;2023-04-01T00:15:04;13.23;;;7.65;;
14665;SDS011;7420;53.574;10.040;2023-04-01T00:17:31;10.95;;;5.75;;
14665;SDS011;7420;53.574;10.040;2023-04-01T00:19:56;12.75;;;7.40;;
14665;SDS011;7420;53.574;10.040;2023-04-01T00:22:22;10.35;;;6.55;;
14665;SDS011;7420;53.574;10.040;2023-04-01T00:24:51;12.40;;;6.95;;
14665;SDS011;7420;53.574;10.040;2023-04-01T00:27:16;13.65;;;7.20;;
14665;SDS011;7420;53.574;10.040;2023-04-01T00:29:43;12.70;;;6.43;;
14665;SDS011;7420;53.574;10.040;2023-04-01T00:32:09;13.45;;;6.38;;
14665;SDS011;7420;53.574;10.040;2023-04-01T00:34:34;13.38;;;6.65;;
14665;SDS011;7420;53.574;10.040;2023-04-01T00:37:00;12.55;;;6.18;;
14665;SDS011;7420;53.574;10.040;2023-04-01T00:39:28;10.23;;;6.22;;
14665;SDS011;7420;53.574;10.040;2023-04-01T00:41:54;12.82;;;6.13;;
14665;SDS011;7420;53.574;10.040;2023-04-01T00:44:21;10.63;;;6.05;;
14665;SDS011;7420;53.574;10.040;2023-04-01T00:46:48;11.82;;;6.68;;
14665;SDS011;7420;53.574;10.040;2023-04-01T00:49:15;12.63;;;6.75;;
14665;SDS011;7420;53.574;10.040;2023-04-01T00:51:42;12.38;;;6.50;;
14665;SDS011;7420;53.574;10.040;2023-04-01T00:54:10;12.85;;;7.40;;
14665;SDS011;7420;53.574;10.040;2023-04-01T00:56:37;11.48;;;6.25;;
14665;SDS011;7420;53.574;10.040;2023-04-01T00:59:07;8.68;;;6.57;;
14665;SDS011;7420;53.574;10.040;2023-04-01T01:01:36;12.63;;;6.45;;
14665;SDS011;7420;53.574;10.040;2023-04-01T01:04:01;9.38;;;5.65;;
14665;SDS011;7420;53.574;10.040;2023-04-01T01:06:34;9.77;;;6.30;;
14665;SDS011;7420;53.574;10.040;2023-04-01T01:12:11;11.50;;;6.35;;
14665;SDS011;7420;53.574;10.040;2023-04-01T01:14:56;11.18;;;6.53;;
14665;SDS011;7420;53.574;10.040;2023-04-01T01:25:31;11.23;;;6.10;;
14665;SDS011;7420;53.574;10.040;2023-04-01T01:33:35;11.90;;;6.70;;
14665;SDS011;7420;53.574;10.040;2023-04-01T01:36:04;8.38;;;6.05;;
14665;SDS011;7420;53.574;10.040;2023-04-01T01:38:34;11.48;;;6.40;;
14665;SDS011;7420;53.574;10.040;2023-04-01T01:41:01;15.65;;;5.95;;
14665;SDS011;7420;53.574;10.040;2023-04-01T01:43:30;14.65;;;6.78;;
14665;SDS011;7420;53.574;10.040;2023-04-01T01:45:59;14.70;;;6.43;;
14665;SDS011;7420;53.574;10.040;2023-04-01T01:48:28;10.43;;;6.50;;
14665;SDS011;7420;53.574;10.040;2023-04-01T01:50:55;9.45;;;6.25;;
14665;SDS011;7420;53.574;10.040;2023-04-01T01:53:21;17.10;;;8.50;;
14665;SDS011;7420;53.574;10.040;2023-04-01T01:55:46;13.68;;;6.88;;
14665;SDS011;7420;53.574;10.040;2023-04-01T02:00:45;14.70;;;6.22;;
14665;SDS011;7420;53.574;10.040;2023-04-01T02:03:14;10.07;;;6.60;;
14665;SDS011;7420;53.574;10.040;2023-04-01T02:05:40;10.63;;;5.97;;
14665;SDS011;7420;53.574;10.040;2023-04-01T02:08:27;10.68;;;6.22;;
14665;SDS011;7420;53.574;10.040;2023-04-01T02:10:56;12.25;;;6.00;;
14665;SDS011;7420;53.574;10.040;2023-04-01T02:13:27;12.35;;;5.47;;
14665;SDS011;7420;53.574;10.040;2023-04-01T02:15:58;12.52;;;6.13;;
14665;SDS011;7420;53.574;10.040;2023-04-01T02:18:27;11.85;;;5.63;;
14665;SDS011;7420;53.574;10.040;2023-04-01T02:20:54;11.20;;;6.63;;
14665;SDS011;7420;53.574;10.040;2023-04-01T02:23:22;14.45;;;6.57;;
14665;SDS011;7420;53.574;10.040;2023-04-01T02:25:48;13.20;;;5.97;;
14665;SDS011;7420;53.574;10.040;2023-04-01T02:28:13;12.80;;;7.85;;
14665;SDS011;7420;53.574;10.040;2023-04-01T02:30:42;10.45;;;7.15;;
14665;SDS011;7420;53.574;10.040;2023-04-01T02:33:09;11.82;;;5.97;;
14665;SDS011;7420;53.574;10.040;2023-04-01T02:35:35;15.90;;;6.03;;
14665;SDS011;7420;53.574;10.040;2023-04-01T02:38:02;13.13;;;6.22;;
14665;SDS011;7420;53.574;10.040;2023-04-01T02:40:28;15.45;;;7.10;;
14665;SDS011;7420;53.574;10.040;2023-04-01T02:42:53;12.50;;;6.75;;
14665;SDS011;7420;53.574;10.040;2023-04-01T02:45:18;13.05;;;6.85;;
14665;SDS011;7420;53.574;10.040;2023-04-01T02:47:44;14.32;;;6.20;;
14665;SDS011;7420;53.574;10.040;2023-04-01T02:50:09;16.27;;;7.15;;
14665;SDS011;7420;53.574;10.040;2023-04-01T02:52:35;12.27;;;7.00;;
14665;SDS011;7420;53.574;10.040;2023-04-01T02:55:00;12.57;;;6.97;;
14665;SDS011;7420;53.574;10.040;2023-04-01T02:57:26;12.88;;;7.55;;
14665;SDS011;7420;53.574;10.040;2023-04-01T02:59:52;13.88;;;7.45;;
14665;SDS011;7420;53.574;10.040;2023-04-01T03:02:17;16.27;;;7.22;;
14665;SDS011;7420;53.574;10.040;2023-04-01T03:04:43;14.70;;;7.05;;
14665;SDS011;7420;53.574;10.040;2023-04-01T03:07:09;14.30;;;7.05;;
14665;SDS011;7420;53.574;10.040;2023-04-01T03:09:35;13.10;;;6.72;;
14665;SDS011;7420;53.574;10.040;2023-04-01T03:12:02;14.32;;;8.35;;
14665;SDS011;7420;53.574;10.040;2023-04-01T03:14:27;17.92;;;7.75;;
14665;SDS011;7420;53.574;10.040;2023-04-01T03:16:53;15.90;;;8.23;;
14665;SDS011;7420;53.574;10.040;2023-04-01T03:19:18;13.88;;;7.43;;
14665;SDS011;7420;53.574;10.040;2023-04-01T03:21:43;13.20;;;6.30;;
14665;SDS011;7420;53.574;10.040;2023-04-01T03:24:09;11.10;;;6.20;;
14665;SDS011;7420;53.574;10.040;2023-04-01T03:26:34;12.38;;;6.82;;
14665;SDS011;7420;53.574;10.040;2023-04-01T03:29:00;10.15;;;7.28;;
14665;SDS011;7420;53.574;10.040;2023-04-01T03:31:25;15.45;;;7.80;;
14665;SDS011;7420;53.574;10.040;2023-04-01T03:33:50;16.80;;;8.07;;
14665;SDS011;7420;53.574;10.040;2023-04-01T03:36:16;14.30;;;7.55;;
14665;SDS011;7420;53.574;10.040;2023-04-01T03:38:42;12.10;;;7.70;;
14665;SDS011;7420;53.574;10.040;2023-04-01T03:41:14;14.68;;;7.22;;
14665;SDS011;7420;53.574;10.040;2023-04-01T03:43:41;14.25;;;8.10;;
14665;SDS011;7420;53.574;10.040;2023-04-01T03:46:06;17.00;;;8.35;;
14665;SDS011;7420;53.574;10.040;2023-04-01T03:48:32;15.52;;;7.90;;
14665;SDS011;7420;53.574;10.040;2023-04-01T03:50:57;18.15;;;8.27;;
14665;SDS011;7420;53.574;10.040;2023-04-01T03:53:22;14.18;;;8.63;;
14665;SDS011;7420;53.574;10.040;2023-04-01T03:55:48;16.15;;;8.50;;
14665;SDS011;7420;53.574;10.040;2023-04-01T03:58:13;12.70;;;8.45;;
14665;SDS011;7420;53.574;10.040;2023-04-01T04:00:38;15.68;;;8.23;;
14665;SDS011;7420;53.574;10.040;2023-04-01T04:03:05;17.02;;;8.75;;
14665;SDS011;7420;53.574;10.040;2023-04-01T04:05:31;13.05;;;8.27;;
14665;SDS011;7420;53.574;10.040;2023-04-01T04:07:56;13.55;;;8.40;;
14665;SDS011;7420;53.574;10.040;2023-04-01T04:10:22;17.23;;;8.18;;
14665;SDS011;7420;53.574;10.040;2023-04-01T04:12:49;13.75;;;8.43;;
14665;SDS011;7420;53.574;10.040;2023-04-01T04:15:14;14.95;;;8.40;;
14665;SDS011;7420;53.574;10.040;2023-04-01T04:17:40;19.40;;;8.95;;
14665;SDS011;7420;53.574;10.040;2023-04-01T04:20:06;11.85;;;8.30;;
14665;SDS011;7420;53.574;10.040;2023-04-01T04:22:32;13.55;;;8.38;;
14665;SDS011;7420;53.574;10.040;2023-04-01T04:24:58;12.93;;;7.90;;
14665;SDS011;7420;53.574;10.040;2023-04-01T04:27:23;14.50;;;8.30;;
14665;SDS011;7420;53.574;10.040;2023-04-01T04:29:48;14.88;;;8.65;;
14665;SDS011;7420;53.574;10.040;2023-04-01T04:32:14;13.80;;;7.70;;
14665;SDS011;7420;53.574;10.040;2023-04-01T04:34:39;12.60;;;8.10;;
14665;SDS011;7420;53.574;10.040;2023-04-01T04:37:05;11.95;;;8.05;;
14665;SDS011;7420;53.574;10.040;2023-04-01T04:39:30;12.05;;;8.15;;
14665;SDS011;7420;53.574;10.040;2023-04-01T04:41:55;13.15;;;7.88;;
14665;SDS011;7420;53.574;10.040;2023-04-01T04:44:21;14.52;;;8.55;;
14665;SDS011;7420;53.574;10.040;2023-04-01T04:46:46;16.15;;;8.57;;
14665;SDS011;7420;53.574;10.040;2023-04-01T04:49:11;14.95;;;8.95;;
14665;SDS011;7420;53.574;10.040;2023-04-01T04:51:37;15.10;;;8.38;;
14665;SDS011;7420;53.574;10.040;2023-04-01T04:54:03;19.95;;;9.55;;
14665;SDS011;7420;53.574;10.040;2023-04-01T04:56:29;11.75;;;8.45;;
14665;SDS011;7420;53.574;10.040;2023-04-01T04:58:55;15.02;;;8.35;;
14665;SDS011;7420;53.574;10.040;2023-04-01T05:01:21;14.52;;;8.98;;
14665;SDS011;7420;53.574;10.040;2023-04-01T05:03:46;14.80;;;7.68;;
14665;SDS011;7420;53.574;10.040;2023-04-01T05:06:13;15.63;;;8.77;;
14665;SDS011;7420;53.574;10.040;2023-04-01T05:08:40;16.25;;;9.23;;
14665;SDS011;7420;53.574;10.040;2023-04-01T05:11:09;16.08;;;8.50;;
14665;SDS011;7420;53.574;10.040;2023-04-01T05:13:39;13.02;;;7.78;;
14665;SDS011;7420;53.574;10.040;2023-04-01T05:16:12;13.32;;;8.85;;
14665;SDS011;7420;53.574;10.040;2023-04-01T05:18:39;13.57;;;8.82;;
14665;SDS011;7420;53.574;10.040;2023-04-01T05:21:06;14.27;;;7.50;;
14665;SDS011;7420;53.574;10.040;2023-04-01T05:23:32;16.15;;;9.25;;
14665;SDS011;7420;53.574;10.040;2023-04-01T05:25:58;14.43;;;9.27;;
14665;SDS011;7420;53.574;10.040;2023-04-01T05:28:27;8.50;;;5.03;;
14665;SDS011;7420;53.574;10.040;2023-04-01T05:30:52;5.28;;;3.63;;
14665;SDS011;7420;53.574;10.040;2023-04-01T05:33:17;3.83;;;2.92;;
14665;SDS011;7420;53.574;10.040;2023-04-01T05:35:43;5.30;;;2.10;;
14665;SDS011;7420;53.574;10.040;2023-04-01T05:38:08;3.00;;;2.13;;
14665;SDS011;7420;53.574;10.040;2023-04-01T05:40:33;4.45;;;2.33;;
14665;SDS011;7420;53.574;10.040;2023-04-01T05:42:59;2.35;;;1.77;;
14665;SDS011;7420;53.574;10.040;2023-04-01T05:45:25;2.28;;;1.90;;
14665;SDS011;7420;53.574;10.040;2023-04-01T05:47:51;2.78;;;1.95;;
14665;SDS011;7420;53.574;10.040;2023-04-01T05:50:16;3.08;;;1.70;;
14665;SDS011;7420;53.574;10.040;2023-04-01T05:52:42;2.75;;;2.20;;
14665;SDS011;7420;53.574;10.040;2023-04-01T05:55:07;2.25;;;1.80;;
14665;SDS011;7420;53.574;10.040;2023-04-01T05:57:33;2.78;;;1.70;;
14665;SDS011;7420;53.574;10.040;2023-04-01T05:59:59;2.95;;;1.98;;
14665;SDS011;7420;53.574;10.040;2023-04-01T06:02:24;2.78;;;2.00;;
14665;SDS011;7420;53.574;10.040;2023-04-01T06:04:49;2.17;;;1.77;;
14665;SDS011;7420;53.574;10.040;2023-04-01T06:07:36;2.67;;;2.13;;
14665;SDS011;7420;53.574;10.040;2023-04-01T06:10:01;2.95;;;2.10;;
14665;SDS011;7420;53.574;10.040;2023-04-01T06:34:50;2.25;;;1.60;;
14665;SDS011;7420;53.574;10.040;2023-04-01T06:43:01;2.70;;;1.85;;
14665;SDS011;7420;53.574;10.040;2023-04-01T06:45:53;2.13;;;1.83;;
14665;SDS011;7420;53.574;10.040;2023-04-01T06:48:38;3.40;;;1.52;;
14665;SDS011;7420;53.574;10.040;2023-04-01T06:56:24;2.28;;;1.73;;
14665;SDS011;7420;53.574;10.040;2023-04-01T06:58:59;2.08;;;1.50;;
14665;SDS011;7420;53.574;10.040;2023-04-01T07:06:36;2.15;;;1.23;;
14665;SDS011;7420;53.574;10.040;2023-04-01T07:09:10;1.65;;;1.52;;
14665;SDS011;7420;53.574;10.040;2023-04-01T07:11:41;0.98;;;0.93;;
14665;SDS011;7420;53.574;10.040;2023-04-01T07:14:24;1.02;;;1.00;;
14665;SDS011;7420;53.574;10.040;2023-04-01T07:16:56;2.00;;;1.55;;
14665;SDS011;7420;53.574;10.040;2023-04-01T07:19:29;2.30;;;1.63;;
14665;SDS011;7420;53.574;10.040;2023-04-01T07:22:04;2.88;;;1.88;;
14665;SDS011;7420;53.574;10.040;2023-04-01T07:24:39;1.38;;;1.27;;
14665;SDS011;7420;53.574;10.040;2023-04-01T07:27:10;2.00;;;1.50;;
14665;SDS011;7420;53.574;10.040;2023-04-01T07:29:36;3.35;;;1.50;;
14665;SDS011;7420;53.574;10.040;2023-04-01T07:32:22;1.98;;;1.30;;
14665;SDS011;7420;53.574;10.040;2023-04-01T07:43:18;1.50;;;1.37;;
14665;SDS011;7420;53.574;10.040;2023-04-01T07:46:03;2.15;;;1.60;;
14665;SDS011;7420;53.574;10.040;2023-04-01T07:53:51;2.53;;;1.58;;
14665;SDS011;7420;53.574;10.040;2023-04-01T07:56:32;3.03;;;1.77;;
14665;SDS011;7420;53.574;10.040;2023-04-01T07:59:30;1.80;;;1.50;;
14665;SDS011;7420;53.574;10.040;2023-04-01T08:02:34;1.70;;;1.60;;
14665;SDS011;7420;53.574;10.040;2023-04-01T08:07:25;2.75;;;1.40;;
14665;SDS011;7420;53.574;10.040;2023-04-01T08:15:38;1.40;;;1.30;;
14665;SDS011;7420;53.574;10.040;2023-04-01T08:21:13;1.50;;;1.40;;
14665;SDS011;7420;53.574;10.040;2023-04-01T08:23:41;1.20;;;1.10;;
14665;SDS011;7420;53.574;10.040;2023-04-01T08:26:17;1.77;;;1.38;;
14665;SDS011;7420;53.574;10.040;2023-04-01T08:28:57;1.58;;;1.20;;
14665;SDS011;7420;53.574;10.040;2023-04-01T08:31:32;1.55;;;1.45;;
14665;SDS011;7420;53.574;10.040;2023-04-01T08:34:25;1.25;;;1.15;;
14665;SDS011;7420;53.574;10.040;2023-04-01T08:37:04;2.30;;;1.40;;
14665;SDS011;7420;53.574;10.040;2023-04-01T08:39:38;1.38;;;1.25;;
14665;SDS011;7420;53.574;10.040;2023-04-01T08:42:22;1.77;;;1.20;;
14665;SDS011;7420;53.574;10.040;2023-04-01T08:45:04;1.15;;;1.10;;
14665;SDS011;7420;53.574;10.040;2023-04-01T08:50:18;2.20;;;1.42;;
14665;SDS011;7420;53.574;10.040;2023-04-01T08:55:35;1.20;;;1.10;;
14665;SDS011;7420;53.574;10.040;2023-04-01T09:00:57;1.05;;;1.00;;
14665;SDS011;7420;53.574;10.040;2023-04-01T09:08:46;1.27;;;1.08;;
14665;SDS011;7420;53.574;10.040;2023-04-01T09:11:21;3.45;;;2.33;;
14665;SDS011;7420;53.574;10.040;2023-04-01T09:17:14;2.40;;;1.63;;
14665;SDS011;7420;53.574;10.040;2023-04-01T09:26:15;4.07;;;1.90;;
14665;SDS011;7420;53.574;10.040;2023-04-01T09:29:12;5.65;;;2.50;;
14665;SDS011;7420;53.574;10.040;2023-04-01T09:34:51;3.00;;;1.90;;
14665;SDS011;7420;53.574;10.040;2023-04-01T09:37:26;2.20;;;1.38;;
14665;SDS011;7420;53.574;10.040;2023-04-01T09:40:17;1.42;;;1.33;;
14665;SDS011;7420;53.574;10.040;2023-04-01T09:53:48;1.77;;;1.23;;
14665;SDS011;7420;53.574;10.040;2023-04-01T10:02:21;2.45;;;1.10;;
14665;SDS011;7420;53.574;10.040;2023-04-01T10:05:19;1.35;;;1.25;;
14665;SDS011;7420;53.574;10.040;2023-04-01T10:50:10;1.08;;;1.05;;
14665;SDS011;7420;53.574;10.040;2023-04-01T10:56:00;1.35;;;1.13;;
14665;SDS011;7420;53.574;10.040;2023-04-01T11:15:54;3.05;;;2.13;;
14665;SDS011;7420;53.574;10.040;2023-04-01T11:18:58;1.63;;;1.40;;
14665;SDS011;7420;53.574;10.040;2023-04-01T11:32:36;1.95;;;1.48;;
14665;SDS011;7420;53.574;10.040;2023-04-01T11:40:56;5.03;;;1.95;;
14665;SDS011;7420;53.574;10.040;2023-04-01T11:43:40;3.63;;;1.92;;
14665;SDS011;7420;53.574;10.040;2023-04-01T11:46:12;4.07;;;1.92;;
14665;SDS011;7420;53.574;10.040;2023-04-01T11:48:48;3.03;;;2.05;;
14665;SDS011;7420;53.574;10.040;2023-04-01T12:10:21;5.45;;;3.40;;
14665;SDS011;7420;53.574;10.040;2023-04-01T12:13:16;4.38;;;3.33;;
14665;SDS011;7420;53.574;10.040;2023-04-01T12:18:24;5.05;;;3.00;;
14665;SDS011;7420;53.574;10.040;2023-04-01T12:46:00;7.18;;;4.72;;
14665;SDS011;7420;53.574;10.040;2023-04-01T13:07:46;4.15;;;3.00;;
14665;SDS011;7420;53.574;10.040;2023-04-01T13:18:52;4.60;;;2.70;;
14665;SDS011;7420;53.574;10.040;2023-04-01T13:32:14;5.43;;;3.70;;
14665;SDS011;7420;53.574;10.040;2023-04-01T13:34:48;6.53;;;3.63;;
14665;SDS011;7420;53.574;10.040;2023-04-01T13:37:34;4.95;;;3.00;;
14665;SDS011;7420;53.574;10.040;2023-04-01T13:42:54;4.82;;;3.60;;
14665;SDS011;7420;53.574;10.040;2023-04-01T13:45:26;4.22;;;3.20;;
14665;SDS011;7420;53.574;10.040;2023-04-01T13:48:15;4.72;;;3.17;;
14665;SDS011;7420;53.574;10.040;2023-04-01T13:56:14;5.68;;;3.53;;
14665;SDS011;7420;53.574;10.040;2023-04-01T13:59:10;7.13;;;3.58;;
14665;SDS011;7420;53.574;10.040;2023-04-01T14:04:34;6.18;;;3.92;;
14665;SDS011;7420;53.574;10.040;2023-04-01T14:07:23;3.42;;;2.97;;
14665;SDS011;7420;53.574;10.040;2023-04-01T14:28:43;7.93;;;3.58;;
14665;SDS011;7420;53.574;10.040;2023-04-01T14:31:40;5.68;;;2.80;;
14665;SDS011;7420;53.574;10.040;2023-04-01T14:45:46;4.53;;;3.42;;
14665;SDS011;7420;53.574;10.040;2023-04-01T14:48:32;5.47;;;3.85;;
14665;SDS011;7420;53.574;10.040;2023-04-01T14:51:44;9.70;;;4.05;;
14665;SDS011;7420;53.574;10.040;2023-04-01T14:53:56;7.43;;;3.67;;
14665;SDS011;7420;53.574;10.040;2023-04-01T14:59:10;5.43;;;3.65;;
14665;SDS011;7420;53.574;10.040;2023-04-01T15:01:55;5.75;;;3.60;;
14665;SDS011;7420;53.574;10.040;2023-04-01T15:04:37;8.38;;;3.92;;
14665;SDS011;7420;53.574;10.040;2023-04-01T15:07:35;6.05;;;4.20;;
14665;SDS011;7420;53.574;10.040;2023-04-01T15:35:34;7.70;;;4.40;;
14665;SDS011;7420;53.574;10.040;2023-04-01T15:43:41;9.30;;;4.38;;
14665;SDS011;7420;53.574;10.040;2023-04-01T15:53:54;9.68;;;5.85;;
14665;SDS011;7420;53.574;10.040;2023-04-01T16:06:57;8.95;;;5.15;;
14665;SDS011;7420;53.574;10.040;2023-04-01T16:18:18;10.55;;;6.30;;
14665;SDS011;7420;53.574;10.040;2023-04-01T16:21:02;9.38;;;5.80;;
14665;SDS011;7420;53.574;10.040;2023-04-01T16:23:50;7.50;;;5.05;;
14665;SDS011;7420;53.574;10.040;2023-04-01T16:26:25;10.13;;;5.25;;
14665;SDS011;7420;53.574;10.040;2023-04-01T16:49:44;9.88;;;5.13;;
14665;SDS011;7420;53.574;10.040;2023-04-01T16:52:21;7.63;;;5.03;;
14665;SDS011;7420;53.574;10.040;2023-04-01T16:55:14;9.23;;;7.03;;
14665;SDS011;7420;53.574;10.040;2023-04-01T16:57:51;11.88;;;6.28;;
14665;SDS011;7420;53.574;10.040;2023-04-01T17:05:48;11.68;;;6.60;;
14665;SDS011;7420;53.574;10.040;2023-04-01T17:11:16;13.40;;;6.85;;
14665;SDS011;7420;53.574;10.040;2023-04-01T17:13:46;11.65;;;7.18;;
14665;SDS011;7420;53.574;10.040;2023-04-01T17:19:23;13.02;;;6.68;;
14665;SDS011;7420;53.574;10.040;2023-04-01T17:24:47;9.18;;;5.53;;
14665;SDS011;7420;53.574;10.040;2023-04-01T17:30:36;7.03;;;4.20;;
14665;SDS011;7420;53.574;10.040;2023-04-01T17:35:43;7.68;;;4.68;;
14665;SDS011;7420;53.574;10.040;2023-04-01T17:38:40;11.38;;;5.05;;
14665;SDS011;7420;53.574;10.040;2023-04-01T17:44:07;9.10;;;4.72;;
14665;SDS011;7420;53.574;10.040;2023-04-01T17:49:33;7.40;;;4.15;;
14665;SDS011;7420;53.574;10.040;2023-04-01T17:54:53;8.50;;;6.38;;
14665;SDS011;7420;53.574;10.040;2023-04-01T18:03:45;6.68;;;4.57;;
14665;SDS011;7420;53.574;10.040;2023-04-01T18:09:40;6.88;;;4.65;;
14665;SDS011;7420;53.574;10.040;2023-04-01T18:17:42;7.25;;;4.28;;
14665;SDS011;7420;53.574;10.040;2023-04-01T18:25:55;6.10;;;3.63;;
14665;SDS011;7420;53.574;10.040;2023-04-01T18:50:56;7.80;;;4.53;;
14665;SDS011;7420;53.574;10.040;2023-04-01T19:02:05;6.35;;;4.80;;
14665;SDS011;7420;53.574;10.040;2023-04-01T19:04:43;6.53;;;4.03;;
14665;SDS011;7420;53.574;10.040;2023-04-01T19:07:39;6.10;;;4.50;;
14665;SDS011;7420;53.574;10.040;2023-04-01T19:10:13;8.85;;;4.45;;
14665;SDS011;7420;53.574;10.040;2023-04-01T19:13:06;10.75;;;5.35;;
14665;SDS011;7420;53.574;10.040;2023-04-01T19:21:14;6.50;;;4.10;;
14665;SDS011;7420;53.574;10.040;2023-04-01T19:31:59;6.60;;;3.97;;
14665;SDS011;7420;53.574;10.040;2023-04-01T19:48:41;11.25;;;5.13;;
14665;SDS011;7420;53.574;10.040;2023-04-01T19:51:13;5.90;;;3.80;;
14665;SDS011;7420;53.574;10.040;2023-04-01T19:56:23;6.57;;;3.15;;
14665;SDS011;7420;53.574;10.040;2023-04-01T19:59:01;10.02;;;4.35;;
14665;SDS011;7420;53.574;10.040;2023-04-01T20:01:44;4.90;;;3.35;;
14665;SDS011;7420;53.574;10.040;2023-04-01T20:15:23;7.70;;;3.90;;
14665;SDS011;7420;53.574;10.040;2023-04-01T20:17:56;8.40;;;4.90;;
14665;SDS011;7420;53.574;10.040;2023-04-01T20:20:24;5.25;;;3.67;;
14665;SDS011;7420;53.574;10.040;2023-04-01T20:22:56;5.80;;;3.58;;
14665;SDS011;7420;53.574;10.040;2023-04-01T20:25:33;5.20;;;3.58;;
14665;SDS011;7420;53.574;10.040;2023-04-01T20:34:12;6.43;;;4.20;;
14665;SDS011;7420;53.574;10.040;2023-04-01T20:50:18;8.63;;;3.47;;
14665;SDS011;7420;53.574;10.040;2023-04-01T20:53:04;6.50;;;3.88;;
14665;SDS011;7420;53.574;10.040;2023-04-01T20:58:33;5.20;;;3.17;;
14665;SDS011;7420;53.574;10.040;2023-04-01T21:10:41;7.03;;;3.55;;
14665;SDS011;7420;53.574;10.040;2023-04-01T21:12:55;3.92;;;2.70;;
14665;SDS011;7420;53.574;10.040;2023-04-01T21:21:22;6.00;;;3.00;;
14665;SDS011;7420;53.574;10.040;2023-04-01T21:26:19;4.05;;;3.03;;
14665;SDS011;7420;53.574;10.040;2023-04-01T21:29:09;5.60;;;3.03;;
14665;SDS011;7420;53.574;10.040;2023-04-01T21:34:48;8.50;;;3.17;;
14665;SDS011;7420;53.574;10.040;2023-04-01T21:37:36;6.22;;;3.10;;
14665;SDS011;7420;53.574;10.040;2023-04-01T21:45:57;6.97;;;2.90;;
14665;SDS011;7420;53.574;10.040;2023-04-01T22:14:30;4.00;;;3.42;;
14665;SDS011;7420;53.574;10.040;2023-04-01T22:16:59;6.88;;;3.67;;
14665;SDS011;7420;53.574;10.040;2023-04-01T22:22:49;7.57;;;2.80;;
14665;SDS011;7420;53.574;10.040;2023-04-01T22:25:25;7.13;;;2.90;;
14665;SDS011;7420;53.574;10.040;2023-04-01T22:28:04;5.57;;;3.17;;
14665;SDS011;7420;53.574;10.040;2023-04-01T22:30:46;4.93;;;3.00;;
14665;SDS011;7420;53.574;10.040;2023-04-01T22:44:00;4.70;;;2.35;;
14665;SDS011;7420;53.574;10.040;2023-04-01T22:51:54;4.60;;;2.30;;
14665;SDS011;7420;53.574;10.040;2023-04-01T22:54:32;7.40;;;3.72;;
14665;SDS011;7420;53.574;10.040;2023-04-01T23:00:03;6.43;;;2.65;;
14665;SDS011;7420;53.574;10.040;2023-04-01T23:02:39;4.63;;;2.35;;
14665;SDS011;7420;53.574;10.040;2023-04-01T23:05:11;5.47;;;2.75;;
14665;SDS011;7420;53.574;10.040;2023-04-01T23:10:54;5.70;;;2.45;;
14665;SDS011;7420;53.574;10.040;2023-04-01T23:13:26;7.40;;;3.67;;
14665;SDS011;7420;53.574;10.040;2023-04-01T23:15:56;6.03;;;2.33;;
14665;SDS011;7420;53.574;10.040;2023-04-01T23:21:06;5.85;;;2.45;;
14665;SDS011;7420;53.574;10.040;2023-04-01T23:23:45;4.82;;;2.70;;
14665;SDS011;7420;53.574;10.040;2023-04-01T23:31:37;3.83;;;2.80;;
14665;SDS011;7420;53.574;10.040;2023-04-01T23:36:39;8.05;;;2.33;;
14665;SDS011;7420;53.574;10.040;2023-04-01T23:39:26;4.57;;;2.20;;
14665;SDS011;7420;53.574;10.040;2023-04-01T23:44:58;7.35;;;2.15;;
14665;SDS011;7420;53.574;10.040;2023-04-01T23:47:33;6.68;;;2.53;;
14665;SDS011;7420;53.574;10.040;2023-04-01T23:52:48;5.13;;;2.20;;
14665;SDS011;7420;53.574;10.040;2023-04-01T23:55:30;3.42;;;2.03;;
